首页
METAR-TAF:

METAR-TAF

机场 :

都柏林, 爱尔兰

都柏林机场

纬度: 53-26N, 经度: 006-15W, 海拔: 68米

当前天气观测

该预报发布于16分钟前的18:00 UTC
风速12节,风向西
温度 10°C
湿度 82%
气压 1007 hPa
能见度10公里或以上
少量云层高于1600英尺
散云层高于2200英尺
多云层高于4100英尺
附近有阵雨

METAR: EIDW 241800Z 26012KT 9999 VCSH FEW016 SCT022 BKN041 10/07 Q1007 NOSIG

时间: 19:16 (18:16 UTC)

预报

该预报发布于1小时和16分钟前的17:00 UTC
预报有效从24日的 18点(UTC)到 25日的 18点(UTC)
风速12节,风向西
能见度10公里或以上
散云层高于1400英尺
多云层高于2500英尺
成为
从 25日的 00点(UTC)到 25日的 03点(UTC)
风速10节,风向西转西南
成为
从 25日的 07点(UTC)到 25日的 10点(UTC)
风速15节,风向西转西南
短暂存在
从 25日的 09点(UTC)到 25日的 12点(UTC)
风速17节,风向西转西南,有时为27节阵风
短暂存在
从 25日的 10点(UTC)到 25日的 18点(UTC)
散云层高于1800英尺, 积雨云.
小阵雨
成为
从 25日的 12点(UTC)到 25日的 14点(UTC)
风速17节,风向西,有时为27节阵风
短暂存在
从 25日的 13点(UTC)到 25日的 18点(UTC)
风速20节,风向西,有时为32节阵风
几率 40% :
短暂存在
从 25日的 13点(UTC)到 25日的 18点(UTC)
能見度: 5000
阵雨

TAF: EIDW 241700Z 2418/2518 27012KT 9999 SCT014 BKN025 BECMG 2500/2503 24010KT BECMG 2507/2510 24015KT TEMPO 2509/2512 24017G27KT TEMPO 2510/2518 -SHRA SCT018CB BECMG 2512/2514 26017G27KT TEMPO 2513/2518 27020G32KT PROB40 TEMPO 2513/2518 5000 SHRA

超过4000个机场的气象观测和天气预报(METAR&TAF报告)。

可查询的气象台以黄色和红色小点在地图上表示。

将鼠标移到小点上方,可查看气象台名称。

然后点击查看天气观测和预报。

如需切换地图:点击带黑十字的绿色按钮放大地图;点击带横线的绿色按钮缩小地图;或者点击绿色箭头查看邻近地区的地图。


METAR-TAF: